Redding Municipal Airport
KRDD : now visible

Airfield :











YOU CAN JOIN US ON...

 
LOGIN :

Register | Disclaimer

   EN    FR    IT 

 









Legend :    VFR   Marginal VFR   IFR   Intensive IFR   Very Intensive IFR
Visi :
Ceiling :
>= 8 km
>= 3000ft
5 to 8 km
1000 to 3000 ft
1500m to 5 km
500 to 1000 ft
800 to 1500m
200 to 500 ft
< 800m
< 200 ft
Symbols :   Thunderstorms  Fog  Heavy snow  Heavy precipitations  Wind > 20 kt






- Airport Elevation : 505 ft
- IATA code : RDD


KRDD - Redding Municipal

CURRENT METAR :
  • 272053Z 15009KT 10SM CLR 14/07 A3031 RMK AO2 PRESFR SLP263 T01390072 58016

EXPIRED METARs :
  • 271953Z 00000KT 10SM BKN070 13/09 A3035 RMK AO2 SLP277 T01280089
  • 271853Z 22003KT 10SM SCT012 BKN060 12/09 A3036 RMK AO2 SLP280 T01220089

TAF KRDD
Valid from the 27 at 18:00 until the 28 at 18:00 UTC


271726Z 2718/2818 VRB03KT P6SM VCSH SCT040 OVC060
TEMPO 2812/2816 P6SM -RA OVC050



MET'MAP, your aeronautical weather chart ! - Copyright ORBIFLY December 2007 - Disclaimer

ORBIFLY MET'MAP TEAM :

Programming & Development : Alexandra Zaïnal
Concept & original design : Baudouin d'Aumeries
Assistance for programming : Marc-Olivier Méhu
Technical & hardware support : Manuel Goepfert

Contact : metmap@orbifly.com




SOURCES & CREDITS :

   NOAA       Earth
Advisory